createdAt,value
2023-04-11T00:00:08.380Z,9.34
2023-04-11T00:05:16.917Z,9.30
2023-04-11T00:10:20.310Z,9.27
2023-04-11T00:15:26.849Z,9.29
2023-04-11T00:20:31.536Z,9.33
2023-04-11T00:25:34.781Z,9.15
2023-04-11T00:30:37.967Z,9.13
2023-04-11T00:35:42.549Z,9.13
2023-04-11T00:40:46.461Z,9.14
2023-04-11T00:45:50.019Z,9.15
2023-04-11T00:50:55.202Z,9.09
2023-04-11T00:55:58.898Z,8.93
2023-04-11T01:01:02.242Z,8.89
2023-04-11T01:06:08.921Z,9.03
2023-04-11T01:11:16.333Z,8.95
2023-04-11T01:16:21.611Z,8.98
2023-04-11T01:21:27.793Z,9.12
2023-04-11T01:26:32.338Z,9.27
2023-04-11T01:31:35.630Z,9.25
2023-04-11T01:36:38.661Z,8.92
2023-04-11T01:41:43.496Z,8.89
2023-04-11T01:46:47.669Z,8.84
2023-04-11T01:51:52.183Z,8.79
2023-04-11T01:56:58.091Z,8.83
2023-04-11T02:02:01.599Z,8.89
2023-04-11T02:07:04.927Z,8.89
2023-04-11T02:12:10.440Z,8.89
2023-04-11T02:17:14.323Z,8.88
2023-04-11T02:22:17.662Z,8.83
2023-04-11T02:27:23.375Z,8.91
2023-04-11T02:32:27.720Z,8.79
2023-04-11T02:37:31.084Z,8.71
2023-04-11T02:42:35.582Z,8.66
2023-04-11T02:47:39.006Z,8.63
2023-04-11T02:52:47.661Z,8.53
2023-04-11T02:57:54.228Z,8.47
2023-04-11T03:02:59.360Z,8.54
2023-04-11T03:08:04.088Z,8.63
2023-04-11T03:13:10.336Z,8.69
2023-04-11T03:18:13.686Z,8.55
2023-04-11T03:23:19.925Z,8.43
2023-04-11T03:28:24.719Z,8.26
2023-04-11T03:33:29.133Z,8.23
2023-04-11T03:38:32.542Z,8.26
2023-04-11T03:43:37.164Z,8.24
2023-04-11T03:48:40.484Z,8.18
2023-04-11T03:53:45.697Z,8.20
2023-04-11T03:59:26.061Z,8.14
2023-04-11T04:04:34.856Z,7.97
2023-04-11T04:09:56.812Z,8.09
2023-04-11T04:15:01.678Z,8.08
2023-04-11T04:20:06.524Z,8.00
2023-04-11T04:25:16.120Z,7.90
2023-04-11T04:30:22.394Z,7.76
2023-04-11T04:35:41.533Z,7.72
2023-04-11T04:40:45.225Z,7.67
2023-04-11T04:45:50.185Z,7.68
2023-04-11T04:51:00.554Z,7.63
2023-04-11T04:56:04.245Z,7.61
2023-04-11T05:01:12.479Z,7.60
2023-04-11T05:06:16.621Z,7.57
2023-04-11T05:11:23.179Z,7.64
2023-04-11T05:16:27.929Z,7.68
2023-04-11T05:21:32.115Z,7.83
2023-04-11T05:26:35.651Z,7.95
2023-04-11T05:31:41.132Z,8.13
2023-04-11T05:36:46.477Z,8.36
2023-04-11T05:41:49.918Z,8.51
2023-04-11T05:46:54.604Z,8.51
2023-04-11T05:51:57.666Z,8.43
2023-04-11T05:57:02.199Z,8.46
2023-04-11T06:02:07.561Z,8.53
2023-04-11T06:07:11.052Z,8.89
2023-04-11T06:12:14.081Z,8.83
2023-04-11T06:17:18.842Z,8.51
2023-04-11T06:22:22.094Z,8.26
2023-04-11T06:27:25.044Z,8.17
2023-04-11T06:32:29.490Z,8.33
2023-04-11T06:37:32.632Z,8.41
2023-04-11T06:42:35.866Z,8.41
2023-04-11T06:47:41.415Z,8.83
2023-04-11T06:52:44.513Z,8.92
2023-04-11T06:57:47.528Z,9.47
2023-04-11T07:02:52.765Z,9.51
2023-04-11T07:07:56.076Z,9.07
2023-04-11T07:12:59.027Z,9.07
2023-04-11T07:18:03.615Z,9.27
2023-04-11T07:23:06.914Z,9.08
2023-04-11T07:28:09.938Z,8.99
2023-04-11T07:33:14.775Z,8.98
2023-04-11T07:38:27.165Z,8.94
2023-04-11T07:43:30.773Z,9.15
2023-04-11T07:48:35.372Z,9.20
2023-04-11T07:53:38.422Z,9.23
2023-04-11T07:58:42.195Z,9.68
2023-04-11T08:03:47.074Z,10.02
2023-04-11T08:08:51.247Z,9.88
2023-04-11T08:13:54.402Z,10.52
2023-04-11T08:18:59.320Z,10.51
2023-04-11T08:24:02.447Z,10.68
2023-04-11T08:29:05.700Z,10.44
2023-04-11T08:34:10.491Z,10.80
2023-04-11T08:39:13.678Z,11.25
2023-04-11T08:44:17.110Z,11.74
2023-04-11T08:49:21.703Z,12.18
2023-04-11T08:54:25.239Z,12.58
2023-04-11T08:59:28.351Z,12.12
2023-04-11T09:04:40.836Z,11.88
2023-04-11T09:09:44.538Z,12.28
2023-04-11T09:14:51.191Z,12.41
2023-04-11T09:19:55.617Z,11.98
2023-04-11T09:25:04.486Z,11.86
2023-04-11T09:30:20.239Z,12.01
2023-04-11T09:35:28.803Z,12.00
2023-04-11T09:40:42.742Z,12.66
2023-04-11T09:45:53.991Z,13.19
2023-04-11T09:51:00.788Z,13.51
2023-04-11T09:56:04.827Z,13.62
2023-04-11T10:01:10.826Z,14.01
2023-04-11T10:06:22.798Z,14.25
2023-04-11T10:11:26.122Z,13.89
2023-04-11T10:16:32.534Z,14.13
2023-04-11T10:21:41.895Z,14.36
2023-04-11T10:26:50.823Z,13.95
2023-04-11T10:32:11.818Z,14.23
2023-04-11T10:37:16.526Z,14.46
2023-04-11T10:42:29.005Z,14.25
2023-04-11T10:47:32.963Z,14.38
2023-04-11T10:52:39.942Z,14.13
2023-04-11T10:58:08.494Z,14.11
2023-04-11T11:03:16.665Z,13.94
2023-04-11T11:08:30.771Z,14.22
2023-04-11T11:13:41.194Z,14.08
2023-04-11T11:18:47.549Z,14.10
2023-04-11T11:23:59.575Z,14.22
2023-04-11T11:29:03.670Z,13.91
2023-04-11T11:34:22.262Z,13.93
2023-04-11T11:39:29.606Z,14.11
2023-04-11T11:44:33.845Z,14.21
2023-04-11T11:49:47.024Z,14.24
2023-04-11T11:54:51.575Z,14.17
2023-04-11T11:59:56.293Z,13.77
2023-04-11T12:05:00.832Z,13.72
2023-04-11T12:10:08.965Z,13.82
2023-04-11T12:15:13.817Z,14.13
2023-04-11T12:20:17.668Z,14.24
2023-04-11T12:25:22.122Z,14.30
2023-04-11T12:30:25.287Z,14.26
2023-04-11T12:35:28.388Z,14.58
2023-04-11T12:40:33.001Z,14.38
2023-04-11T12:45:36.509Z,14.39
2023-04-11T12:50:39.647Z,14.23
2023-04-11T12:55:44.200Z,14.24
2023-04-11T13:00:47.458Z,14.37
2023-04-11T13:05:50.940Z,14.35
2023-04-11T13:10:56.032Z,14.60
2023-04-11T13:15:59.379Z,14.59
2023-04-11T13:21:02.869Z,14.82
2023-04-11T13:26:08.234Z,14.81
2023-04-11T13:31:11.628Z,14.82
2023-04-11T13:36:14.815Z,14.59
2023-04-11T13:41:19.686Z,14.68
2023-04-11T13:46:23.354Z,15.12
2023-04-11T13:51:27.305Z,14.98
2023-04-11T13:56:31.756Z,14.76
2023-04-11T14:01:35.222Z,14.94
2023-04-11T14:06:38.573Z,15.03
2023-04-11T14:11:43.737Z,14.98
2023-04-11T14:16:47.169Z,14.94
2023-04-11T14:21:51.738Z,15.21
2023-04-11T14:26:56.494Z,15.08
2023-04-11T14:31:59.832Z,15.30
2023-04-11T14:37:03.153Z,15.48
2023-04-11T14:42:09.183Z,15.51
2023-04-11T14:47:12.934Z,15.56
2023-04-11T14:52:16.042Z,15.60
2023-04-11T14:57:23.496Z,15.57
2023-04-11T15:02:27.893Z,15.74
2023-04-11T15:07:32.225Z,15.87
2023-04-11T15:12:36.891Z,15.75
2023-04-11T15:17:42.123Z,15.79
2023-04-11T15:22:46.747Z,15.64
2023-04-11T15:27:51.889Z,15.83
2023-04-11T15:32:55.253Z,15.93
2023-04-11T15:38:00.619Z,16.09
2023-04-11T15:43:06.601Z,16.14
2023-04-11T15:48:11.819Z,16.55
2023-04-11T15:53:14.969Z,16.56
2023-04-11T15:58:19.429Z,16.68
2023-04-11T16:03:23.072Z,16.78
2023-04-11T16:08:27.275Z,16.88
2023-04-11T16:13:31.977Z,16.68
2023-04-11T16:18:35.145Z,16.62
2023-04-11T16:23:38.251Z,16.62
2023-04-11T16:28:42.723Z,16.35
2023-04-11T16:33:45.758Z,16.11
2023-04-11T16:38:49.734Z,15.88
2023-04-11T16:43:54.517Z,15.81
2023-04-11T16:48:57.874Z,15.80
2023-04-11T16:54:02.391Z,15.77
2023-04-11T16:59:06.981Z,15.87
2023-04-11T17:04:10.382Z,15.87
2023-04-11T17:09:13.431Z,15.91
2023-04-11T17:14:18.203Z,15.55
2023-04-11T17:19:22.249Z,15.44
2023-04-11T17:24:27.110Z,15.15
2023-04-11T17:29:31.973Z,15.12
2023-04-11T17:34:35.358Z,15.12
2023-04-11T17:39:38.420Z,15.01
2023-04-11T17:44:42.721Z,14.80
2023-04-11T17:49:46.308Z,14.64
2023-04-11T17:54:49.923Z,14.47
2023-04-11T17:59:54.417Z,14.35
2023-04-11T18:04:57.732Z,14.20
2023-04-11T18:10:01.352Z,14.14
2023-04-11T18:15:07.377Z,14.06
2023-04-11T18:20:12.386Z,13.83
2023-04-11T18:25:15.809Z,13.84
2023-04-11T18:30:20.216Z,13.72
2023-04-11T18:35:25.327Z,13.47
2023-04-11T18:40:29.456Z,13.37
2023-04-11T18:45:34.689Z,13.13
2023-04-11T18:50:43.018Z,12.99
2023-04-11T18:55:46.215Z,12.90
2023-04-11T19:00:51.164Z,12.70
2023-04-11T19:05:54.272Z,12.82
2023-04-11T19:10:57.430Z,12.81
2023-04-11T19:16:02.126Z,12.73
2023-04-11T19:21:05.327Z,12.72
2023-04-11T19:26:08.818Z,12.65
2023-04-11T19:31:14.049Z,12.55
2023-04-11T19:36:18.459Z,12.44
2023-04-11T19:41:23.659Z,12.29
2023-04-11T19:46:28.464Z,12.22
2023-04-11T19:51:31.696Z,12.04
2023-04-11T19:56:34.731Z,12.07
2023-04-11T20:01:39.090Z,11.99
2023-04-11T20:06:44.056Z,11.95
2023-04-11T20:11:50.938Z,11.85
2023-04-11T20:16:55.422Z,11.82
2023-04-11T20:22:00.857Z,11.73
2023-04-11T20:27:04.207Z,11.68
2023-04-11T20:32:08.797Z,11.61
2023-04-11T20:37:13.076Z,11.56
2023-04-11T20:42:16.136Z,11.53
2023-04-11T20:47:20.640Z,11.49
2023-04-11T20:52:23.699Z,11.40
2023-04-11T20:57:29.879Z,11.40
2023-04-11T21:02:34.623Z,11.33
2023-04-11T21:07:37.875Z,11.26
2023-04-11T21:12:43.092Z,11.26
2023-04-11T21:17:48.003Z,11.22
2023-04-11T21:22:53.855Z,11.11
2023-04-11T21:27:56.992Z,10.97
2023-04-11T21:33:01.549Z,10.86
2023-04-11T21:38:04.684Z,10.77
2023-04-11T21:43:08.391Z,10.77
2023-04-11T21:48:12.942Z,10.71
2023-04-11T21:53:16.984Z,10.63
2023-04-11T21:58:29.129Z,10.56
2023-04-11T22:03:34.445Z,10.51
2023-04-11T22:08:39.201Z,10.43
2023-04-11T22:13:46.299Z,10.43
2023-04-11T22:18:54.940Z,10.33
2023-04-11T22:23:58.295Z,10.24
2023-04-11T22:29:03.861Z,10.12
2023-04-11T22:34:09.542Z,10.03
2023-04-11T22:39:12.548Z,10.00
2023-04-11T22:44:15.730Z,9.92
2023-04-11T22:49:21.142Z,9.82
2023-04-11T22:54:24.245Z,9.78
2023-04-11T22:59:28.345Z,9.73
2023-04-11T23:04:33.343Z,9.70
2023-04-11T23:09:36.572Z,9.69
2023-04-11T23:14:39.601Z,9.64
2023-04-11T23:19:44.222Z,9.57
2023-04-11T23:24:47.327Z,9.48
2023-04-11T23:29:51.103Z,9.41
2023-04-11T23:34:55.822Z,9.39
2023-04-11T23:39:59.488Z,9.25
2023-04-11T23:45:02.533Z,9.16
2023-04-11T23:50:08.071Z,9.18
2023-04-11T23:55:12.323Z,9.12
